Time;durP1;ratioP1;P1;durP2;ratioP2;P2;SDS_P1;SDS_P2;PMS_P1;PMS_P2;Temp;Humidity;BMP_temperature;BMP_pressure;BME280_temperature;BME280_humidity;BME280_pressure;Samples;Min_cycle;Max_cycle;Signal;HPM_P1;HPM_P2
2022/04/26 04:43:30;;;;;;;21.17;13.80;;;;;;;-143.53;100.00;58366.03;2084745;28;20224;-62
2022/04/26 04:44:32;;;;;;;21.05;14.57;;;;;;;-143.53;100.00;58366.03;2075780;28;20800;-64
2022/04/26 04:45:35;;;;;;;21.42;15.00;;;;;;;-143.53;100.00;58366.03;2061689;28;20199;-65
2022/04/26 04:46:36;;;;;;;22.27;16.65;;;;;;;-143.53;100.00;58366.03;2068313;28;20199;-65
2022/04/26 04:47:38;;;;;;;24.45;17.00;;;;;;;-143.53;100.00;58366.03;2086140;28;20197;-65
2022/04/26 04:48:39;;;;;;;24.02;16.25;;;;;;;-143.53;100.00;58366.03;2085264;28;20197;-65
2022/04/26 04:49:41;;;;;;;22.08;14.95;;;;;;;-143.53;100.00;58366.03;2085187;28;20611;-65
2022/04/26 04:50:43;;;;;;;21.83;16.10;;;;;;;-143.53;100.00;58366.03;2086085;28;20212;-61
2022/04/26 04:51:45;;;;;;;19.98;14.40;;;;;;;-143.53;100.00;58366.03;2087160;28;20200;-60
2022/04/26 04:52:47;;;;;;;20.85;15.60;;;;;;;-143.53;100.00;58366.03;2084822;28;20236;-60
2022/04/26 04:53:49;;;;;;;22.05;16.20;;;;;;;-143.53;100.00;58366.03;2085191;28;20258;-60
2022/04/26 04:54:50;;;;;;;27.70;15.30;;;;;;;-143.53;100.00;58366.03;2084550;28;20202;-60
2022/04/26 04:55:52;;;;;;;22.20;14.95;;;;;;;-143.53;100.00;58366.03;2085743;28;20223;-60
2022/04/26 04:56:53;;;;;;;19.85;14.60;;;;;;;-143.53;100.00;58366.03;2085583;28;20231;-60
2022/04/26 04:57:55;;;;;;;17.77;13.95;;;;;;;-143.53;100.00;58366.03;2083659;28;20208;-60
2022/04/26 04:58:57;;;;;;;21.42;14.95;;;;;;;-143.53;100.00;58366.03;2087071;28;20204;-60
2022/04/26 05:00:00;;;;;;;19.60;14.70;;;;;;;-143.53;100.00;58366.03;2085510;28;20196;-60
2022/04/26 05:01:01;;;;;;;20.95;14.93;;;;;;;-143.53;100.00;58366.03;2086387;28;20224;-61
2022/04/26 05:02:03;;;;;;;21.30;16.17;;;;;;;-143.53;100.00;58366.03;2082300;28;20228;-60
2022/04/26 05:03:04;;;;;;;15.98;12.95;;;;;;;-143.53;100.00;58366.03;2085071;28;20201;-60
2022/04/26 05:04:06;;;;;;;21.17;14.65;;;;;;;-143.53;100.00;58366.03;2087280;28;20200;-60
2022/04/26 05:05:08;;;;;;;19.02;14.82;;;;;;;-143.53;100.00;58366.03;2083838;28;20242;-61
2022/04/26 05:06:14;;;;;;;19.80;14.82;;;;;;;-143.53;100.00;58366.03;2084024;28;20409;-60
2022/04/26 05:07:17;;;;;;;18.65;14.15;;;;;;;-143.53;100.00;58366.03;2085524;28;20193;-60
2022/04/26 05:08:19;;;;;;;19.80;13.73;;;;;;;-143.53;100.00;58366.03;2083520;28;20197;-60
2022/04/26 05:09:20;;;;;;;20.27;13.90;;;;;;;-143.53;100.00;58366.03;2083826;28;20707;-60
2022/04/26 05:10:22;;;;;;;21.15;14.82;;;;;;;-143.53;100.00;58366.03;2083911;28;20197;-60
2022/04/26 05:11:23;;;;;;;17.83;14.15;;;;;;;-143.53;100.00;58366.03;2083605;28;20756;-60
2022/04/26 05:12:28;;;;;;;20.80;14.35;;;;;;;-143.53;100.00;58366.03;2083737;28;20199;-60
2022/04/26 05:13:30;;;;;;;23.15;13.55;;;;;;;-143.53;100.00;58366.03;2085121;28;20207;-60
2022/04/26 05:14:32;;;;;;;21.13;14.43;;;;;;;-143.53;100.00;58366.03;2085468;28;20755;-60
2022/04/26 05:15:33;;;;;;;17.52;12.95;;;;;;;-143.53;100.00;58366.03;2083740;28;20219;-60
2022/04/26 05:16:35;;;;;;;15.77;11.90;;;;;;;-143.53;100.00;58366.03;2083537;28;20194;-60
2022/04/26 05:17:36;;;;;;;16.15;12.35;;;;;;;-143.53;100.00;58366.03;2084108;28;20216;-60
2022/04/26 05:18:38;;;;;;;18.75;13.13;;;;;;;-143.53;100.00;58366.03;2084722;28;20191;-60
2022/04/26 05:19:39;;;;;;;21.38;14.10;;;;;;;-143.53;100.00;58366.03;2082579;28;20193;-59
2022/04/26 05:20:41;;;;;;;16.38;13.48;;;;;;;-143.53;100.00;58366.03;2079832;28;20711;-59
2022/04/26 05:21:42;;;;;;;21.08;16.40;;;;;;;-143.53;100.00;58366.03;2083630;28;20200;-60
2022/04/26 05:25:24;;;;;;;17.45;12.15;;;;;;;-143.53;100.00;58366.03;2084805;28;20229;-60
2022/04/26 05:26:26;;;;;;;16.48;12.63;;;;;;;-143.53;100.00;58366.03;2073500;28;20224;-60
2022/04/26 05:27:31;;;;;;;17.40;12.43;;;;;;;-143.53;100.00;58366.03;2081547;28;20211;-60
2022/04/26 05:28:34;;;;;;;16.13;11.60;;;;;;;-143.53;100.00;58366.03;2082611;28;20279;-60
2022/04/26 05:29:36;;;;;;;16.25;12.15;;;;;;;-143.53;100.00;58366.03;2084924;28;20767;-60
2022/04/26 05:30:37;;;;;;;14.80;11.15;;;;;;;-143.53;100.00;58366.03;2082638;28;20208;-60
2022/04/26 05:31:39;;;;;;;17.58;12.02;;;;;;;-143.53;100.00;58366.03;2085200;28;20204;-60
2022/04/26 05:32:40;;;;;;;13.88;10.93;;;;;;;-143.53;100.00;58366.03;2085289;28;20204;-60
2022/04/26 05:33:42;;;;;;;15.07;10.90;;;;;;;-143.53;100.00;58366.03;2085588;28;20204;-61
2022/04/26 05:34:43;;;;;;;12.73;9.90;;;;;;;-143.53;100.00;58366.03;2087340;28;20207;-61
2022/04/26 05:35:45;;;;;;;14.60;11.07;;;;;;;-143.53;100.00;58366.03;2081646;28;20229;-60
2022/04/26 05:36:46;;;;;;;16.15;11.88;;;;;;;-143.53;100.00;58366.03;2083607;28;20200;-60
2022/04/26 05:37:48;;;;;;;14.35;10.52;;;;;;;-143.53;100.00;58366.03;2085596;28;20220;-60
2022/04/26 05:38:49;;;;;;;17.48;11.20;;;;;;;-143.53;100.00;58366.03;2085488;28;20201;-60
2022/04/26 05:39:51;;;;;;;12.45;8.57;;;;;;;-143.53;100.00;58366.03;2085958;28;20200;-60
2022/04/26 05:40:53;;;;;;;14.13;9.93;;;;;;;-143.53;100.00;58366.03;2084182;28;20218;-60
2022/04/26 05:41:54;;;;;;;15.20;11.30;;;;;;;-143.53;100.00;58366.03;2085974;28;20606;-60
2022/04/26 05:42:55;;;;;;;14.68;11.48;;;;;;;-143.53;100.00;58366.03;2084175;28;20201;-60
2022/04/26 05:43:57;;;;;;;17.52;11.50;;;;;;;-143.53;100.00;58366.03;2082885;28;20233;-61
2022/04/26 05:44:58;;;;;;;15.02;11.23;;;;;;;-143.53;100.00;58366.03;2081416;28;20197;-60
2022/04/26 05:46:00;;;;;;;16.77;11.23;;;;;;;-143.53;100.00;58366.03;2083426;28;20217;-60
2022/04/26 05:47:02;;;;;;;15.27;10.82;;;;;;;-143.53;100.00;58366.03;2084646;28;20200;-60
2022/04/26 05:48:04;;;;;;;17.20;12.15;;;;;;;-143.53;100.00;58366.03;2086634;28;20671;-60
2022/04/26 05:49:06;;;;;;;17.17;12.52;;;;;;;-143.53;100.00;58366.03;2084808;28;20666;-60
2022/04/26 05:50:11;;;;;;;17.05;12.95;;;;;;;-143.53;100.00;58366.03;2082974;28;20204;-60
2022/04/26 05:51:13;;;;;;;20.95;12.85;;;;;;;-143.53;100.00;58366.03;2081209;28;20224;-60
2022/04/26 05:52:15;;;;;;;16.98;12.98;;;;;;;-143.53;100.00;58366.03;2083455;28;20201;-60
2022/04/26 05:53:17;;;;;;;16.50;12.00;;;;;;;-143.53;100.00;58366.03;2083366;28;20201;-61
2022/04/26 05:54:18;;;;;;;18.25;13.18;;;;;;;-143.53;100.00;58366.03;2084047;28;20608;-60
2022/04/26 05:55:20;;;;;;;19.70;12.82;;;;;;;-143.53;100.00;58366.03;2084556;28;20198;-61
2022/04/26 05:56:21;;;;;;;14.10;10.98;;;;;;;-143.53;100.00;58366.03;2087295;28;20227;-61
2022/04/26 05:57:22;;;;;;;16.92;10.70;;;;;;;-143.53;100.00;58366.03;2087984;28;20199;-61
2022/04/26 05:58:24;;;;;;;17.50;11.35;;;;;;;-143.53;100.00;58366.03;2085141;28;20204;-61
2022/04/26 05:59:26;;;;;;;14.13;10.95;;;;;;;-143.53;100.00;58366.03;2083061;28;20201;-60
2022/04/26 06:00:28;;;;;;;18.48;12.60;;;;;;;-143.53;100.00;58366.03;2083142;28;20208;-59
2022/04/26 06:01:29;;;;;;;35.65;23.02;;;;;;;-143.53;100.00;58366.03;2082236;28;20284;-60
2022/04/26 06:02:31;;;;;;;16.73;13.23;;;;;;;-143.53;100.00;58366.03;2085859;28;20248;-59
2022/04/26 06:03:34;;;;;;;17.23;13.05;;;;;;;-143.53;100.00;58366.03;2086259;28;20644;-59
2022/04/26 06:04:38;;;;;;;20.08;14.23;;;;;;;-143.53;100.00;58366.03;2085462;28;20200;-59
2022/04/26 06:05:39;;;;;;;17.00;11.57;;;;;;;-143.53;100.00;58366.03;2085003;28;20203;-60
2022/04/26 06:06:41;;;;;;;19.02;11.90;;;;;;;-143.53;100.00;58366.03;2086429;28;20209;-61
2022/04/26 06:07:42;;;;;;;17.10;11.75;;;;;;;-143.53;100.00;58366.03;2083542;28;20212;-61
2022/04/26 06:08:44;;;;;;;16.00;12.10;;;;;;;-143.53;100.00;58366.03;2077723;28;20205;-61
2022/04/26 06:09:53;;;;;;;14.18;10.75;;;;;;;-143.53;100.00;58366.03;2083516;28;20226;-61
2022/04/26 06:10:54;;;;;;;13.65;11.32;;;;;;;-143.53;100.00;58366.03;2083724;28;20225;-61
2022/04/26 06:11:57;;;;;;;13.00;10.73;;;;;;;-143.53;100.00;58366.03;2085267;28;20200;-61
2022/04/26 06:12:59;;;;;;;16.25;11.38;;;;;;;-143.53;100.00;58366.03;2085124;28;20200;-62
2022/04/26 06:14:02;;;;;;;11.95;10.40;;;;;;;-143.53;100.00;58366.03;2084582;28;20201;-61
2022/04/26 06:15:05;;;;;;;14.82;10.60;;;;;;;-143.53;100.00;58366.03;2084705;28;20207;-61
2022/04/26 06:16:06;;;;;;;12.35;10.05;;;;;;;-143.53;100.00;58366.03;2083254;28;20684;-61
2022/04/26 06:17:08;;;;;;;12.38;9.00;;;;;;;-143.53;100.00;58366.03;2085149;28;20202;-64
2022/04/26 06:18:09;;;;;;;10.77;8.60;;;;;;;-143.53;100.00;58366.03;2086456;28;20213;-62
2022/04/26 06:19:11;;;;;;;12.75;9.38;;;;;;;-143.53;100.00;58366.03;2084534;28;20218;-62
2022/04/26 06:20:12;;;;;;;10.82;8.20;;;;;;;-143.53;100.00;58366.03;2085667;28;20639;-62
2022/04/26 06:21:15;;;;;;;10.63;8.45;;;;;;;-143.53;100.00;58366.03;2082492;28;20233;-62
2022/04/26 06:22:17;;;;;;;11.07;7.38;;;;;;;-143.53;100.00;58366.03;2083777;28;20201;-61
2022/04/26 06:23:18;;;;;;;8.60;7.35;;;;;;;-143.53;100.00;58366.03;2084568;28;20204;-62
2022/04/26 06:24:20;;;;;;;9.68;7.38;;;;;;;-143.53;100.00;58366.03;2085257;28;20200;-62
2022/04/26 06:25:21;;;;;;;10.55;7.70;;;;;;;-143.53;100.00;58366.03;2083647;28;20298;-61
2022/04/26 06:26:23;;;;;;;8.75;6.90;;;;;;;-143.53;100.00;58366.03;2083255;28;20262;-62
2022/04/26 06:27:24;;;;;;;9.77;7.22;;;;;;;-143.53;100.00;58366.03;2084113;28;20197;-62
2022/04/26 06:28:26;;;;;;;8.70;6.95;;;;;;;-143.53;100.00;58366.03;2082198;28;20197;-61
2022/04/26 06:29:27;;;;;;;8.63;7.05;;;;;;;-143.53;100.00;58366.03;2084473;28;20243;-62
2022/04/26 06:30:29;;;;;;;10.30;7.35;;;;;;;-143.53;100.00;58366.03;2073765;28;20205;-62
2022/04/26 06:31:30;;;;;;;8.95;6.70;;;;;;;-143.53;100.00;58366.03;2090242;28;20209;-66
2022/04/26 06:32:32;;;;;;;8.63;7.10;;;;;;;-143.53;100.00;58366.03;2091230;28;20252;-66
2022/04/26 06:33:34;;;;;;;10.50;7.88;;;;;;;-143.53;100.00;58366.03;2084024;28;20196;-66
2022/04/26 06:34:35;;;;;;;10.82;8.15;;;;;;;-143.53;100.00;58366.03;2083553;28;20196;-66
2022/04/26 06:35:37;;;;;;;9.85;6.70;;;;;;;-143.53;100.00;58366.03;2081349;28;20197;-66
2022/04/26 06:36:38;;;;;;;9.07;7.20;;;;;;;-143.53;100.00;58366.03;2083261;28;20207;-66
2022/04/26 06:37:40;;;;;;;11.07;7.32;;;;;;;-143.53;100.00;58366.03;2082611;28;20201;-66
2022/04/26 06:38:41;;;;;;;9.35;7.63;;;;;;;-143.53;100.00;58366.03;2084809;28;20210;-66
2022/04/26 06:39:43;;;;;;;8.75;6.60;;;;;;;-143.53;100.00;58366.03;2084655;28;20200;-66
2022/04/26 06:40:46;;;;;;;7.20;6.20;;;;;;;-143.53;100.00;58366.03;2086181;28;20603;-66
2022/04/26 06:41:48;;;;;;;10.27;5.82;;;;;;;-143.53;100.00;58366.03;2085435;28;20204;-66
2022/04/26 06:42:49;;;;;;;10.40;7.05;;;;;;;-143.53;100.00;58366.03;2087456;28;20196;-66
2022/04/26 06:43:51;;;;;;;9.68;6.30;;;;;;;-143.53;100.00;58366.03;2086743;28;20205;-66
2022/04/26 06:44:52;;;;;;;8.55;6.35;;;;;;;-143.53;100.00;58366.03;2081524;28;20675;-66
2022/04/26 06:45:54;;;;;;;8.38;6.32;;;;;;;-143.53;100.00;58366.03;2082843;28;20311;-66
2022/04/26 06:46:55;;;;;;;8.38;6.75;;;;;;;-143.53;100.00;58366.03;2083351;28;20211;-66
2022/04/26 06:47:57;;;;;;;7.30;6.20;;;;;;;-143.53;100.00;58366.03;2083339;28;20219;-66
2022/04/26 06:49:00;;;;;;;9.45;6.25;;;;;;;-143.53;100.00;58366.03;2082987;28;20243;-66
2022/04/26 06:50:03;;;;;;;8.15;7.25;;;;;;;-143.53;100.00;58366.03;2083980;28;20202;-66
2022/04/26 06:51:04;;;;;;;7.75;6.00;;;;;;;-143.53;100.00;58366.03;2082030;28;20224;-66
2022/04/26 06:52:06;;;;;;;8.70;6.03;;;;;;;-143.53;100.00;58366.03;2085807;28;20199;-66
2022/04/26 06:53:08;;;;;;;9.85;6.78;;;;;;;-143.53;100.00;58366.03;2081917;28;20201;-66
2022/04/26 06:54:10;;;;;;;9.48;6.53;;;;;;;-143.53;100.00;58366.03;2082705;28;20717;-66
2022/04/26 06:55:12;;;;;;;10.43;7.25;;;;;;;-143.53;100.00;58366.03;2083584;28;20204;-66
2022/04/26 06:56:13;;;;;;;10.27;6.90;;;;;;;-143.53;100.00;58366.03;2084730;28;20216;-66
2022/04/26 06:57:16;;;;;;;10.10;7.28;;;;;;;-143.53;100.00;58366.03;2082317;28;20262;-66
2022/04/26 06:58:18;;;;;;;10.90;7.45;;;;;;;-143.53;100.00;58366.03;2082878;28;20706;-66
2022/04/26 06:59:20;;;;;;;12.35;7.70;;;;;;;-143.53;100.00;58366.03;2084963;28;20694;-66
2022/04/26 07:00:22;;;;;;;11.82;7.57;;;;;;;-143.53;100.00;58366.03;2083444;28;20667;-66
2022/04/26 07:01:23;;;;;;;9.00;6.95;;;;;;;-143.53;100.00;58366.03;2084156;28;21002;-66
2022/04/26 07:02:40;;;;;;;9.68;6.93;;;;;;;-143.53;100.00;58366.03;2083869;28;20310;-66
2022/04/26 07:03:42;;;;;;;11.63;7.38;;;;;;;-143.53;100.00;58366.03;2084934;28;20208;-66
2022/04/26 07:04:43;;;;;;;8.85;6.90;;;;;;;-143.53;100.00;58366.03;2083394;28;20203;-66
2022/04/26 07:05:45;;;;;;;7.93;6.53;;;;;;;-143.53;100.00;58366.03;2081071;28;20683;-66
2022/04/26 07:06:48;;;;;;;9.00;7.05;;;;;;;-143.53;100.00;58366.03;2086996;28;20553;-66
2022/04/26 07:07:51;;;;;;;7.90;6.47;;;;;;;-143.53;100.00;58366.03;2083516;28;20603;-66
2022/04/26 07:08:52;;;;;;;9.68;7.43;;;;;;;-143.53;100.00;58366.03;2082641;28;20275;-66
2022/04/26 07:09:53;;;;;;;9.43;7.40;;;;;;;-143.53;100.00;58366.03;2083408;28;20523;-66
2022/04/26 07:10:55;;;;;;;12.68;7.95;;;;;;;-143.53;100.00;58366.03;2082818;28;20221;-66
2022/04/26 07:11:57;;;;;;;12.35;8.02;;;;;;;-143.53;100.00;58366.03;2083966;28;20268;-66
2022/04/26 07:12:58;;;;;;;9.80;7.43;;;;;;;-143.53;100.00;58366.03;2083794;28;20196;-66
2022/04/26 07:14:00;;;;;;;7.30;6.13;;;;;;;-143.53;100.00;58366.03;2084280;28;20197;-66
2022/04/26 07:15:02;;;;;;;9.82;7.50;;;;;;;-143.53;100.00;58366.03;2084121;28;20197;-66
2022/04/26 07:16:04;;;;;;;13.30;9.45;;;;;;;-143.53;100.00;58366.03;2083930;28;20224;-66
2022/04/26 07:17:05;;;;;;;11.25;8.32;;;;;;;-143.53;100.00;58366.03;2084520;28;20251;-66
2022/04/26 07:18:07;;;;;;;11.52;8.57;;;;;;;-143.53;100.00;58366.03;2082126;28;20200;-66
2022/04/26 07:19:09;;;;;;;9.80;8.20;;;;;;;-143.53;100.00;58366.03;2086020;28;20192;-66
2022/04/26 07:20:10;;;;;;;11.63;9.05;;;;;;;-143.53;100.00;58366.03;2082850;28;20193;-66
2022/04/26 07:21:12;;;;;;;10.88;8.35;;;;;;;-143.53;100.00;58366.03;2085131;28;20219;-68
2022/04/26 07:22:14;;;;;;;11.50;7.63;;;;;;;-143.53;100.00;58366.03;2083199;28;20193;-66
2022/04/26 07:23:15;;;;;;;10.88;8.13;;;;;;;-143.53;100.00;58366.03;2082436;28;20201;-66
2022/04/26 07:24:17;;;;;;;10.73;8.27;;;;;;;-143.53;100.00;58366.03;2085146;28;20193;-66
2022/04/26 07:25:18;;;;;;;10.68;6.63;;;;;;;-143.53;100.00;58366.03;2082591;28;20200;-66
2022/04/26 07:26:20;;;;;;;10.23;7.60;;;;;;;-143.53;100.00;58366.03;2084441;28;20232;-66
2022/04/26 07:27:24;;;;;;;9.38;7.50;;;;;;;-143.53;100.00;58366.03;2083007;28;20198;-66
2022/04/26 07:28:25;;;;;;;11.00;7.57;;;;;;;-143.53;100.00;58366.03;2081577;28;20719;-66
2022/04/26 07:29:27;;;;;;;14.38;7.70;;;;;;;-143.53;100.00;58366.03;2081808;28;20226;-66
2022/04/26 07:30:34;;;;;;;14.85;7.88;;;;;;;-143.53;100.00;58366.03;2083420;28;20205;-66
2022/04/26 07:31:36;;;;;;;9.95;8.05;;;;;;;-143.53;100.00;58366.03;2081156;28;20197;-66
2022/04/26 07:35:18;;;;;;;9.98;7.65;;;;;;;-143.53;100.00;58366.03;2084504;28;20665;-66
2022/04/26 07:36:22;;;;;;;10.73;7.95;;;;;;;-143.53;100.00;58366.03;2082904;28;20229;-66
2022/04/26 07:37:23;;;;;;;10.93;7.82;;;;;;;-143.53;100.00;58366.03;2084847;28;20197;-66
2022/04/26 07:38:25;;;;;;;11.85;9.00;;;;;;;-143.53;100.00;58366.03;2086440;28;20201;-66
2022/04/26 07:39:26;;;;;;;12.27;8.98;;;;;;;-143.53;100.00;58366.03;2086264;28;20315;-66
2022/04/26 07:40:28;;;;;;;10.43;8.40;;;;;;;-143.53;100.00;58366.03;2085708;28;20203;-66
2022/04/26 07:41:30;;;;;;;12.55;8.40;;;;;;;-143.53;100.00;58366.03;2087197;28;20207;-66
2022/04/26 07:42:31;;;;;;;10.90;7.45;;;;;;;-143.53;100.00;58366.03;2087029;28;20205;-66
2022/04/26 07:43:33;;;;;;;14.77;7.90;;;;;;;-143.53;100.00;58366.03;2085560;28;20220;-66
2022/04/26 07:44:35;;;;;;;16.58;8.38;;;;;;;-143.53;100.00;58366.03;2085976;28;20234;-66
2022/04/26 07:45:41;;;;;;;13.43;8.57;;;;;;;-143.53;100.00;58366.03;2084555;28;20651;-66
2022/04/26 07:46:45;;;;;;;8.55;7.65;;;;;;;-143.53;100.00;58366.03;2083854;28;20204;-66
2022/04/26 07:47:46;;;;;;;10.18;7.75;;;;;;;-143.53;100.00;58366.03;2084996;28;20200;-66
2022/04/26 07:48:48;;;;;;;15.70;8.68;;;;;;;-143.53;100.00;58366.03;2086379;28;20648;-66
2022/04/26 07:49:49;;;;;;;11.43;8.07;;;;;;;-143.53;100.00;58366.03;2085837;28;20199;-66
2022/04/26 07:50:51;;;;;;;14.95;8.20;;;;;;;-143.53;100.00;58366.03;2085516;28;20276;-66
2022/04/26 07:51:53;;;;;;;12.30;8.77;;;;;;;-143.53;100.00;58366.03;2084341;28;20211;-67
2022/04/26 07:52:55;;;;;;;10.80;8.65;;;;;;;-143.53;100.00;58366.03;2084286;28;20202;-67
2022/04/26 07:53:56;;;;;;;16.05;9.50;;;;;;;-143.53;100.00;58366.03;2088084;28;20194;-67
2022/04/26 07:54:58;;;;;;;12.30;8.10;;;;;;;-143.53;100.00;58366.03;2085633;28;20204;-67
2022/04/26 07:55:59;;;;;;;12.00;9.45;;;;;;;-143.53;100.00;58366.03;2084030;28;20224;-67
2022/04/26 07:57:01;;;;;;;13.10;9.18;;;;;;;-143.53;100.00;58366.03;2085979;28;20644;-67
2022/04/26 07:58:02;;;;;;;13.35;8.90;;;;;;;-143.53;100.00;58366.03;2086272;28;20590;-67
2022/04/26 07:59:04;;;;;;;17.13;9.40;;;;;;;-143.53;100.00;58366.03;2084182;28;20205;-67
2022/04/26 08:00:06;;;;;;;12.98;9.05;;;;;;;-143.53;100.00;58366.03;2085323;28;20207;-67
2022/04/26 08:01:08;;;;;;;11.43;9.45;;;;;;;-143.53;100.00;58366.03;2084537;28;20221;-67
2022/04/26 08:02:10;;;;;;;14.32;10.13;;;;;;;-143.53;100.00;58366.03;2082452;28;20216;-67
2022/04/26 08:03:20;;;;;;;14.95;10.00;;;;;;;-143.53;100.00;58366.03;2085382;28;20194;-67
2022/04/26 08:04:22;;;;;;;21.00;9.70;;;;;;;-143.53;100.00;58366.03;2084855;28;20561;-67
2022/04/26 08:05:23;;;;;;;11.50;7.95;;;;;;;-143.53;100.00;58366.03;2086716;28;20200;-67
2022/04/26 08:06:26;;;;;;;14.55;9.15;;;;;;;-143.53;100.00;58366.03;2079719;28;20762;-67
2022/04/26 08:07:33;;;;;;;13.13;9.77;;;;;;;-143.53;100.00;58366.03;2091978;28;20193;-67
2022/04/26 08:08:34;;;;;;;12.27;9.07;;;;;;;-143.53;100.00;58366.03;2085611;28;20205;-67
2022/04/26 08:09:38;;;;;;;18.35;8.80;;;;;;;-143.53;100.00;58366.03;2084447;28;20549;-68
2022/04/26 08:10:40;;;;;;;15.68;9.52;;;;;;;-143.53;100.00;58366.03;2087103;28;20235;-67
2022/04/26 08:11:42;;;;;;;13.07;8.80;;;;;;;-143.53;100.00;58366.03;2086262;28;20247;-67
2022/04/26 08:12:44;;;;;;;14.60;8.82;;;;;;;-143.53;100.00;58366.03;2086541;28;20201;-67
2022/04/26 08:13:46;;;;;;;18.33;9.48;;;;;;;-143.53;100.00;58366.03;2086846;28;20203;-67
2022/04/26 08:14:51;;;;;;;16.35;10.00;;;;;;;-143.53;100.00;58366.03;2084015;28;20212;-67
2022/04/26 08:15:53;;;;;;;13.35;9.52;;;;;;;-143.53;100.00;58366.03;2084961;28;20230;-68
2022/04/26 08:16:55;;;;;;;16.23;9.48;;;;;;;-143.53;100.00;58366.03;2085540;28;20201;-67
2022/04/26 08:17:56;;;;;;;12.57;9.40;;;;;;;-143.53;100.00;58366.03;2085540;28;20262;-67
2022/04/26 08:18:59;;;;;;;14.32;9.15;;;;;;;-143.53;100.00;58366.03;2087724;28;20718;-67
2022/04/26 08:20:00;;;;;;;14.32;9.90;;;;;;;-143.53;100.00;58366.03;2085268;28;20195;-67
2022/04/26 08:21:05;;;;;;;12.55;9.63;;;;;;;-143.53;100.00;58366.03;2085193;28;20299;-67
2022/04/26 08:22:06;;;;;;;12.25;9.48;;;;;;;-143.53;100.00;58366.03;2084407;28;20203;-67
2022/04/26 08:23:08;;;;;;;14.52;9.35;;;;;;;-143.53;100.00;58366.03;2085922;28;20204;-67
2022/04/26 08:28:10;;;;;;;21.13;13.38;;;;;;;-143.53;100.00;58366.03;2082896;28;20200;-67
2022/04/26 08:29:14;;;;;;;15.43;10.68;;;;;;;-143.53;100.00;58366.03;2080152;28;20645;-67
2022/04/26 08:30:16;;;;;;;14.27;10.77;;;;;;;-143.53;100.00;58366.03;2087668;28;20561;-67
2022/04/26 08:31:19;;;;;;;14.38;11.05;;;;;;;-143.53;100.00;58366.03;2084534;28;20904;-67
2022/04/26 08:32:22;;;;;;;19.20;10.55;;;;;;;-143.53;100.00;58366.03;2085954;28;20208;-67
2022/04/26 08:33:23;;;;;;;16.77;10.27;;;;;;;-143.53;100.00;58366.03;2086415;28;20193;-67
2022/04/26 08:34:25;;;;;;;13.68;9.65;;;;;;;-143.53;100.00;58366.03;2082993;28;20781;-67
2022/04/26 08:35:29;;;;;;;21.58;11.30;;;;;;;-143.53;100.00;58366.03;2085598;28;20219;-66
2022/04/26 08:36:51;;;;;;;16.70;9.98;;;;;;;-143.53;100.00;58366.03;2086968;28;20211;-67
2022/04/26 08:37:53;;;;;;;15.13;11.13;;;;;;;-143.53;100.00;58366.03;2086454;28;20192;-67
2022/04/26 08:38:54;;;;;;;15.88;10.52;;;;;;;-143.53;100.00;58366.03;2085174;28;20223;-67
2022/04/26 08:39:56;;;;;;;13.75;10.27;;;;;;;-143.53;100.00;58366.03;2084236;28;20197;-68
2022/04/26 08:40:57;;;;;;;13.75;10.13;;;;;;;-143.53;100.00;58366.03;2084628;28;20223;-67
2022/04/26 08:42:00;;;;;;;12.90;10.07;;;;;;;-143.53;100.00;58366.03;2082096;28;20251;-67
2022/04/26 08:43:02;;;;;;;14.38;10.55;;;;;;;-143.53;100.00;58366.03;2084787;28;20223;-68
2022/04/26 08:44:11;;;;;;;18.35;10.77;;;;;;;-143.53;100.00;58366.03;2085884;28;20259;-67
2022/04/26 08:45:18;;;;;;;18.27;10.75;;;;;;;-143.53;100.00;58366.03;2083946;28;20200;-67
2022/04/26 08:46:19;;;;;;;15.77;10.00;;;;;;;-143.53;100.00;58366.03;2086233;28;20239;-68
2022/04/26 08:51:21;;;;;;;14.40;10.07;;;;;;;-143.53;100.00;58366.03;2085536;28;20226;-68
2022/04/26 08:52:24;;;;;;;14.60;9.75;;;;;;;-143.53;100.00;58366.03;2083494;28;20205;-67
2022/04/26 08:53:27;;;;;;;12.52;8.65;;;;;;;-143.53;100.00;58366.03;2084664;28;20207;-67
2022/04/26 08:54:30;;;;;;;14.02;9.75;;;;;;;-143.53;100.00;58366.03;2085770;28;20197;-68
2022/04/26 08:55:32;;;;;;;12.77;8.27;;;;;;;-143.53;100.00;58366.03;2085002;28;20197;-67
2022/04/26 08:56:33;;;;;;;14.90;9.98;;;;;;;-143.53;100.00;58366.03;2085067;28;20236;-67
2022/04/26 08:57:35;;;;;;;14.65;9.52;;;;;;;-143.53;100.00;58366.03;2085027;28;20833;-67
2022/04/26 08:58:37;;;;;;;16.50;9.77;;;;;;;-143.53;100.00;58366.03;2085736;28;20670;-67
2022/04/26 08:59:52;;;;;;;12.07;8.43;;;;;;;-143.53;100.00;58366.03;2082342;28;20204;-68
2022/04/26 09:01:18;;;;;;;13.30;10.23;;;;;;;-143.53;100.00;58366.03;2084688;28;20216;-67
2022/04/26 09:02:22;;;;;;;13.07;8.60;;;;;;;-143.53;100.00;58366.03;2085624;28;20554;-67
2022/04/26 09:03:23;;;;;;;16.85;8.00;;;;;;;-143.53;100.00;58366.03;2086242;28;20197;-67
2022/04/26 09:04:25;;;;;;;12.73;8.25;;;;;;;-143.53;100.00;58366.03;2079775;28;20720;-67
2022/04/26 09:05:27;;;;;;;12.23;8.20;;;;;;;-143.53;100.00;58366.03;2083137;28;20205;-67
2022/04/26 09:06:43;;;;;;;16.67;8.88;;;;;;;-143.53;100.00;58366.03;2083339;28;20196;-67
2022/04/26 09:07:47;;;;;;;12.35;8.85;;;;;;;-143.53;100.00;58366.03;2084525;28;20543;-67
2022/04/26 09:08:50;;;;;;;10.18;8.10;;;;;;;-143.53;100.00;58366.03;2084796;28;20212;-67
2022/04/26 09:10:10;;;;;;;11.30;8.68;;;;;;;-143.53;100.00;58366.03;2085704;28;20200;-67
2022/04/26 09:11:28;;;;;;;14.07;8.80;;;;;;;-143.53;100.00;58366.03;2086471;28;20217;-67
2022/04/26 09:12:29;;;;;;;12.23;8.73;;;;;;;-143.53;100.00;58366.03;2086735;28;20202;-68
2022/04/26 09:13:40;;;;;;;10.57;8.15;;;;;;;-143.53;100.00;58366.03;2085560;28;20200;-67
2022/04/26 09:14:48;;;;;;;14.05;7.75;;;;;;;-143.53;100.00;58366.03;2082359;28;20200;-67
2022/04/26 09:15:51;;;;;;;10.38;7.82;;;;;;;-143.53;100.00;58366.03;2082880;28;20216;-67
2022/04/26 09:17:09;;;;;;;11.05;8.15;;;;;;;-143.53;100.00;58366.03;2088126;28;20203;-67
2022/04/26 09:18:30;;;;;;;14.45;7.30;;;;;;;-143.53;100.00;58366.03;2081200;28;20252;-68
2022/04/26 09:19:44;;;;;;;11.43;6.90;;;;;;;-143.53;100.00;58366.03;2082959;28;20261;-67
2022/04/26 09:20:48;;;;;;;14.05;8.20;;;;;;;-143.53;100.00;58366.03;2086900;28;20282;-67
2022/04/26 09:21:54;;;;;;;9.70;6.88;;;;;;;-143.53;100.00;58366.03;2081492;28;20192;-68
2022/04/26 09:23:01;;;;;;;16.95;7.15;;;;;;;-143.53;100.00;58366.03;2082480;28;20204;-68
2022/04/26 09:24:05;;;;;;;10.68;6.72;;;;;;;-143.53;100.00;58366.03;2084716;28;20211;-68
2022/04/26 09:25:07;;;;;;;10.13;6.63;;;;;;;-143.53;100.00;58366.03;2083928;28;20208;-67
2022/04/26 09:26:10;;;;;;;10.02;6.32;;;;;;;-143.53;100.00;58366.03;2087641;28;20228;-68
2022/04/26 09:27:15;;;;;;;11.10;7.05;;;;;;;-143.53;100.00;58366.03;2084577;28;20211;-68
2022/04/26 09:28:21;;;;;;;12.77;7.07;;;;;;;-143.53;100.00;58366.03;2084241;28;20193;-68
2022/04/26 09:29:24;;;;;;;10.48;7.93;;;;;;;-143.53;100.00;58366.03;2085548;28;20197;-67
2022/04/26 09:30:31;;;;;;;11.07;6.47;;;;;;;-143.53;100.00;58366.03;2085237;28;20556;-67
2022/04/26 09:31:38;;;;;;;9.85;6.65;;;;;;;-143.53;100.00;58366.03;2084800;28;20201;-67
2022/04/26 09:32:45;;;;;;;10.32;7.05;;;;;;;-143.53;100.00;58366.03;2082327;28;20271;-68
2022/04/26 09:33:49;;;;;;;11.90;6.15;;;;;;;-143.53;100.00;58366.03;2079453;28;20230;-68
2022/04/26 09:34:50;;;;;;;9.38;6.43;;;;;;;-143.53;100.00;58366.03;2077328;28;21040;-68
2022/04/26 09:36:03;;;;;;;7.90;6.15;;;;;;;-143.53;100.00;58366.03;2083656;28;20229;-68
2022/04/26 09:37:05;;;;;;;11.63;6.82;;;;;;;-143.53;100.00;58366.03;2082528;28;20201;-68
2022/04/26 09:38:06;;;;;;;9.75;6.60;;;;;;;-143.53;100.00;58366.03;2082477;28;20197;-68